Time;durP1;ratioP1;P1;durP2;ratioP2;P2;SDS_P1;SDS_P2;PMS_P1;PMS_P2;Temp;Humidity;BMP_temperature;BMP_pressure;BME280_temperature;BME280_humidity;BME280_pressure;Samples;Min_cycle;Max_cycle;Signal;HPM_P1;HPM_P2
2022/10/08 00:01:20;;;;;;;5.50;3.00;;;;;;;;;;4981719;28;20073;-86
2022/10/08 00:03:48;;;;;;;6.22;3.03;;;;;;;;;;4952177;28;20051;-86
2022/10/08 00:06:22;;;;;;;5.78;2.92;;;;;;;;;;4946605;28;20057;-87
2022/10/08 00:08:56;;;;;;;5.13;2.80;;;;;;;;;;4973099;28;20054;-85
2022/10/08 00:11:29;;;;;;;8.02;3.13;;;;;;;;;;4954265;28;20453;-85
2022/10/08 00:13:55;;;;;;;5.55;2.85;;;;;;;;;;4962165;28;20043;-87
2022/10/08 00:16:23;;;;;;;7.50;3.42;;;;;;;;;;4950230;28;20098;-83
2022/10/08 00:18:50;;;;;;;5.80;3.05;;;;;;;;;;4955021;28;20043;-86
2022/10/08 00:21:28;;;;;;;5.80;3.53;;;;;;;;;;4954129;28;20121;-84
2022/10/08 00:23:54;;;;;;;5.78;3.20;;;;;;;;;;4969061;28;20066;-86
2022/10/08 00:26:24;;;;;;;6.00;2.92;;;;;;;;;;4950336;28;20497;-87
2022/10/08 00:28:51;;;;;;;7.35;3.42;;;;;;;;;;4962166;28;20038;-87
2022/10/08 00:31:39;;;;;;;6.18;3.13;;;;;;;;;;4966333;28;20042;-86
2022/10/08 00:34:10;;;;;;;5.13;3.25;;;;;;;;;;4956347;28;20047;-86
2022/10/08 00:36:38;;;;;;;5.82;3.47;;;;;;;;;;4941417;28;20035;-86
2022/10/08 00:39:09;;;;;;;6.00;3.10;;;;;;;;;;4941899;28;20035;-86
2022/10/08 00:41:37;;;;;;;5.82;2.92;;;;;;;;;;4950561;28;20034;-85
2022/10/08 00:45:01;;;;;;;6.93;3.63;;;;;;;;;;4968520;28;20129;-86
2022/10/08 00:47:32;;;;;;;5.57;3.30;;;;;;;;;;4935780;28;20456;-86
2022/10/08 00:50:16;;;;;;;7.95;3.35;;;;;;;;;;4936791;29;20427;-86
2022/10/08 00:52:46;;;;;;;5.32;2.97;;;;;;;;;;4941334;28;20469;-85
2022/10/08 00:55:13;;;;;;;6.70;3.25;;;;;;;;;;4942630;28;20070;-86
2022/10/08 00:57:38;;;;;;;6.30;3.20;;;;;;;;;;4928159;28;20035;-85
2022/10/08 01:00:10;;;;;;;7.85;3.75;;;;;;;;;;4928429;28;20427;-86
2022/10/08 01:05:10;;;;;;;9.35;3.90;;;;;;;;;;4925515;28;20047;-86
2022/10/08 01:07:50;;;;;;;6.50;3.42;;;;;;;;;;4915249;29;20120;-86
2022/10/08 01:10:30;;;;;;;6.70;3.90;;;;;;;;;;4943713;28;20039;-86
2022/10/08 01:13:17;;;;;;;6.65;3.50;;;;;;;;;;4941841;28;20043;-86
2022/10/08 01:16:26;;;;;;;6.82;3.63;;;;;;;;;;4955745;28;20031;-86
2022/10/08 01:19:07;;;;;;;8.93;3.50;;;;;;;;;;4933803;28;20073;-86
2022/10/08 01:21:47;;;;;;;6.00;3.55;;;;;;;;;;4924747;28;20182;-85
2022/10/08 01:24:21;;;;;;;10.52;4.20;;;;;;;;;;4954906;28;20054;-86
2022/10/08 01:26:56;;;;;;;8.65;4.30;;;;;;;;;;4959534;28;20557;-86
2022/10/08 01:29:22;;;;;;;5.75;3.30;;;;;;;;;;4939795;28;20442;-86
2022/10/08 01:32:00;;;;;;;7.60;3.78;;;;;;;;;;4956619;28;20054;-86
2022/10/08 01:34:56;;;;;;;6.53;3.90;;;;;;;;;;4949526;28;20043;-86
2022/10/08 01:37:26;;;;;;;7.07;4.07;;;;;;;;;;4917041;28;20039;-85
2022/10/08 01:39:55;;;;;;;7.82;4.40;;;;;;;;;;4928255;28;20039;-86
2022/10/08 01:42:22;;;;;;;6.30;3.53;;;;;;;;;;4933224;28;20063;-86
2022/10/08 01:44:51;;;;;;;6.18;3.83;;;;;;;;;;4956593;28;20053;-86
2022/10/08 01:47:19;;;;;;;7.38;3.65;;;;;;;;;;4941935;28;20050;-86
2022/10/08 01:49:52;;;;;;;6.85;4.25;;;;;;;;;;4938786;28;20073;-86
2022/10/08 01:52:30;;;;;;;8.50;4.10;;;;;;;;;;4941465;28;20516;-86
2022/10/08 01:55:01;;;;;;;6.30;3.75;;;;;;;;;;4947222;28;20131;-86
2022/10/08 01:57:28;;;;;;;8.98;4.13;;;;;;;;;;4944233;28;20430;-85
2022/10/08 01:59:58;;;;;;;8.35;3.95;;;;;;;;;;4933014;28;20494;-86
2022/10/08 02:02:24;;;;;;;6.85;3.83;;;;;;;;;;4921168;28;20035;-86
2022/10/08 02:04:52;;;;;;;9.00;4.00;;;;;;;;;;4933414;28;20057;-86
2022/10/08 02:07:22;;;;;;;7.00;4.43;;;;;;;;;;4923353;28;20106;-87
2022/10/08 02:09:53;;;;;;;7.50;3.97;;;;;;;;;;4927252;28;20111;-87
2022/10/08 02:12:21;;;;;;;7.18;3.92;;;;;;;;;;4932673;28;20079;-86
2022/10/08 02:14:52;;;;;;;7.50;4.07;;;;;;;;;;4931359;28;20134;-85
2022/10/08 02:17:39;;;;;;;6.95;4.03;;;;;;;;;;4931673;28;20028;-85
2022/10/08 02:20:17;;;;;;;8.05;4.07;;;;;;;;;;4938043;28;20047;-86
2022/10/08 02:23:07;;;;;;;6.07;3.60;;;;;;;;;;4930095;28;20035;-87
2022/10/08 02:25:36;;;;;;;6.97;4.20;;;;;;;;;;4937887;28;20027;-86
2022/10/08 02:28:10;;;;;;;6.15;3.63;;;;;;;;;;4925578;28;20047;-87
2022/10/08 02:30:40;;;;;;;6.53;3.95;;;;;;;;;;4936535;28;20057;-86
2022/10/08 02:33:14;;;;;;;8.75;4.55;;;;;;;;;;4941136;28;20094;-86
2022/10/08 02:35:49;;;;;;;7.18;4.05;;;;;;;;;;4925159;28;20426;-86
2022/10/08 02:38:21;;;;;;;8.10;4.18;;;;;;;;;;4941754;28;20406;-86
2022/10/08 02:40:49;;;;;;;7.15;4.18;;;;;;;;;;4927208;28;20047;-85
2022/10/08 02:43:24;;;;;;;7.13;4.15;;;;;;;;;;4925566;28;20043;-86
2022/10/08 02:45:57;;;;;;;6.53;4.13;;;;;;;;;;4929522;28;20126;-86
2022/10/08 02:48:28;;;;;;;8.23;4.47;;;;;;;;;;4940093;28;20039;-85
2022/10/08 02:50:57;;;;;;;7.03;4.32;;;;;;;;;;4926187;28;20046;-86
2022/10/08 02:53:23;;;;;;;6.95;4.28;;;;;;;;;;4924892;28;20397;-86
2022/10/08 02:56:00;;;;;;;8.10;4.50;;;;;;;;;;4930578;28;20031;-87
2022/10/08 02:58:25;;;;;;;8.30;4.07;;;;;;;;;;4944516;28;20469;-86
2022/10/08 03:00:58;;;;;;;6.43;4.20;;;;;;;;;;4926357;28;20310;-87
2022/10/08 03:03:29;;;;;;;7.38;4.28;;;;;;;;;;4929090;28;20110;-87
2022/10/08 03:05:55;;;;;;;7.32;4.25;;;;;;;;;;4927517;28;20469;-87
2022/10/08 03:08:21;;;;;;;10.38;4.47;;;;;;;;;;4928990;28;20050;-86
2022/10/08 03:10:47;;;;;;;7.60;4.88;;;;;;;;;;4937244;28;20085;-86
2022/10/08 03:13:12;;;;;;;6.57;4.47;;;;;;;;;;4936597;28;20379;-86
2022/10/08 03:15:39;;;;;;;7.93;4.90;;;;;;;;;;4938879;28;20054;-87
2022/10/08 03:18:09;;;;;;;7.75;4.90;;;;;;;;;;4934475;28;20050;-87
2022/10/08 03:20:46;;;;;;;8.10;4.88;;;;;;;;;;4928036;28;20065;-87
2022/10/08 03:23:14;;;;;;;9.05;4.43;;;;;;;;;;4948188;28;20039;-86
2022/10/08 03:25:40;;;;;;;6.90;4.22;;;;;;;;;;4950838;28;20121;-87
2022/10/08 03:28:05;;;;;;;8.55;4.75;;;;;;;;;;4935441;28;20126;-87
2022/10/08 03:30:30;;;;;;;7.55;4.65;;;;;;;;;;4928173;28;20035;-87
2022/10/08 03:32:56;;;;;;;7.15;4.55;;;;;;;;;;4935967;28;20047;-87
2022/10/08 03:35:21;;;;;;;7.53;4.15;;;;;;;;;;4938599;28;20038;-86
2022/10/08 03:37:46;;;;;;;8.07;4.50;;;;;;;;;;4925832;28;20058;-86
2022/10/08 03:40:12;;;;;;;6.95;4.47;;;;;;;;;;4931532;28;20383;-86
2022/10/08 03:42:37;;;;;;;8.25;4.57;;;;;;;;;;4929472;28;20481;-86
2022/10/08 03:45:04;;;;;;;7.55;4.63;;;;;;;;;;4943214;28;20090;-86
2022/10/08 03:47:29;;;;;;;7.00;4.70;;;;;;;;;;4935375;28;20506;-86
2022/10/08 03:49:54;;;;;;;7.75;4.47;;;;;;;;;;4938833;28;20062;-87
2022/10/08 03:52:20;;;;;;;6.78;4.57;;;;;;;;;;4934267;28;20127;-87
2022/10/08 03:54:45;;;;;;;9.10;4.88;;;;;;;;;;4959233;28;20038;-87
2022/10/08 03:57:10;;;;;;;7.65;4.60;;;;;;;;;;4934392;28;20272;-87
2022/10/08 03:59:38;;;;;;;6.80;4.80;;;;;;;;;;4931816;28;20032;-87
2022/10/08 04:02:06;;;;;;;8.07;4.93;;;;;;;;;;4934359;28;20038;-87
2022/10/08 04:04:31;;;;;;;;;;;;;;;;;;4937811;28;20047;-87
2022/10/08 04:06:57;;;;;;;8.30;4.53;;;;;;;;;;4933814;28;19933;-87
2022/10/08 04:09:22;;;;;;;7.72;4.57;;;;;;;;;;4941175;28;20035;-85
2022/10/08 04:11:48;;;;;;;9.77;5.20;;;;;;;;;;4931804;28;20503;-86
2022/10/08 04:14:13;;;;;;;8.00;5.03;;;;;;;;;;4933952;28;20487;-85
2022/10/08 04:16:39;;;;;;;8.05;4.50;;;;;;;;;;4928863;28;20446;-86
2022/10/08 04:19:04;;;;;;;9.55;5.10;;;;;;;;;;4923547;28;20526;-86
2022/10/08 04:21:30;;;;;;;7.25;4.60;;;;;;;;;;4924862;28;20054;-85
2022/10/08 04:23:55;;;;;;;8.68;5.13;;;;;;;;;;4934481;28;20445;-85
2022/10/08 04:26:21;;;;;;;6.93;4.28;;;;;;;;;;4926771;28;20106;-85
2022/10/08 04:28:47;;;;;;;8.98;4.65;;;;;;;;;;4934128;28;20039;-85
2022/10/08 04:31:17;;;;;;;7.78;5.25;;;;;;;;;;4941802;28;20047;-85
2022/10/08 04:33:43;;;;;;;8.40;5.05;;;;;;;;;;4929396;28;20110;-85
2022/10/08 04:36:10;;;;;;;7.25;5.05;;;;;;;;;;4941674;28;20457;-85
2022/10/08 04:38:36;;;;;;;7.25;4.80;;;;;;;;;;4932449;28;20062;-85
2022/10/08 04:41:17;;;;;;;8.35;4.93;;;;;;;;;;4927675;28;20475;-85
2022/10/08 04:43:44;;;;;;;6.93;4.85;;;;;;;;;;4933740;28;20397;-85
2022/10/08 04:46:11;;;;;;;9.20;5.73;;;;;;;;;;4925894;28;20466;-86
2022/10/08 04:48:38;;;;;;;9.65;4.93;;;;;;;;;;4926524;28;20114;-86
2022/10/08 04:51:04;;;;;;;7.55;4.93;;;;;;;;;;4925401;28;20134;-86
2022/10/08 04:53:30;;;;;;;9.23;5.45;;;;;;;;;;4941866;28;20086;-86
2022/10/08 04:55:56;;;;;;;8.32;5.30;;;;;;;;;;4943312;28;20449;-86
2022/10/08 04:58:24;;;;;;;10.90;5.18;;;;;;;;;;4931543;28;20043;-86
2022/10/08 05:00:49;;;;;;;;;;;;;;;;;;4932133;28;20541;-85
2022/10/08 05:03:15;;;;;;;7.85;4.65;;;;;;;;;;4941791;28;20012;-85
2022/10/08 05:05:42;;;;;;;10.45;5.47;;;;;;;;;;4927162;28;20031;-85
2022/10/08 05:08:07;;;;;;;7.63;4.72;;;;;;;;;;4928184;28;20117;-86
2022/10/08 05:10:33;;;;;;;9.63;5.47;;;;;;;;;;4930238;28;21801;-85
2022/10/08 05:12:58;;;;;;;9.32;6.05;;;;;;;;;;4940144;28;20478;-85
2022/10/08 05:15:24;;;;;;;8.65;5.20;;;;;;;;;;4932017;28;20082;-85
2022/10/08 05:17:49;;;;;;;9.25;5.30;;;;;;;;;;4941123;28;20117;-85
2022/10/08 05:20:14;;;;;;;10.93;5.85;;;;;;;;;;4927492;28;20062;-85
2022/10/08 05:22:40;;;;;;;8.15;5.10;;;;;;;;;;4933244;28;20040;-86
2022/10/08 05:25:06;;;;;;;9.95;5.63;;;;;;;;;;4933180;28;20039;-86
2022/10/08 05:27:32;;;;;;;8.95;5.30;;;;;;;;;;4925257;28;20509;-85
2022/10/08 05:29:57;;;;;;;8.95;5.43;;;;;;;;;;4934179;28;20045;-85
2022/10/08 05:32:22;;;;;;;8.63;5.57;;;;;;;;;;4932986;28;20034;-86
2022/10/08 05:34:48;;;;;;;8.75;5.63;;;;;;;;;;4934433;28;20067;-85
2022/10/08 05:37:13;;;;;;;8.48;5.15;;;;;;;;;;4923932;28;20418;-85
2022/10/08 05:39:39;;;;;;;8.07;5.53;;;;;;;;;;4935330;28;20035;-85
2022/10/08 05:42:04;;;;;;;8.88;5.78;;;;;;;;;;4933193;28;20565;-85
2022/10/08 05:44:29;;;;;;;7.72;5.20;;;;;;;;;;4935076;28;20065;-85
2022/10/08 05:46:55;;;;;;;7.28;5.00;;;;;;;;;;4922463;28;20055;-85
2022/10/08 05:49:21;;;;;;;8.55;5.35;;;;;;;;;;4925290;28;20031;-86
2022/10/08 05:51:48;;;;;;;8.25;4.97;;;;;;;;;;4942133;28;20156;-86
2022/10/08 05:54:14;;;;;;;9.23;5.60;;;;;;;;;;4933062;28;20489;-86
2022/10/08 05:56:39;;;;;;;8.73;5.22;;;;;;;;;;4923302;28;20038;-85
2022/10/08 05:59:05;;;;;;;10.23;5.60;;;;;;;;;;4924265;28;20036;-85
2022/10/08 06:01:31;;;;;;;10.60;5.80;;;;;;;;;;4922066;28;20039;-83
2022/10/08 06:04:02;;;;;;;8.63;5.07;;;;;;;;;;4937305;28;20108;-82
2022/10/08 06:06:27;;;;;;;8.60;5.35;;;;;;;;;;4935212;28;20118;-82
2022/10/08 06:08:57;;;;;;;7.90;5.15;;;;;;;;;;4937256;28;20031;-81
2022/10/08 06:11:23;;;;;;;7.68;5.10;;;;;;;;;;4936396;28;20043;-81
2022/10/08 06:13:54;;;;;;;8.32;5.25;;;;;;;;;;4927308;28;20059;-81
2022/10/08 06:16:20;;;;;;;8.38;5.38;;;;;;;;;;4928215;28;20036;-82
2022/10/08 06:18:45;;;;;;;10.10;5.57;;;;;;;;;;4937940;28;20558;-82
2022/10/08 06:21:16;;;;;;;8.57;5.32;;;;;;;;;;4925522;28;20097;-82
2022/10/08 06:23:54;;;;;;;8.70;4.90;;;;;;;;;;4944604;28;20039;-82
2022/10/08 06:26:21;;;;;;;7.50;5.13;;;;;;;;;;4920018;28;20082;-80
2022/10/08 06:28:47;;;;;;;8.97;5.37;;;;;;;;;;4943072;28;20035;-81
2022/10/08 06:31:13;;;;;;;8.45;5.57;;;;;;;;;;4925752;28;20881;-80
2022/10/08 06:33:39;;;;;;;9.35;5.07;;;;;;;;;;4922886;28;20039;-80
2022/10/08 06:36:18;;;;;;;10.52;5.60;;;;;;;;;;4938686;28;20093;-82
2022/10/08 06:38:55;;;;;;;8.73;5.50;;;;;;;;;;4928747;28;20038;-83
2022/10/08 06:41:21;;;;;;;8.83;5.20;;;;;;;;;;4917754;29;20824;-85
2022/10/08 06:43:54;;;;;;;9.95;5.03;;;;;;;;;;4899100;29;20280;-83
2022/10/08 06:46:26;;;;;;;7.18;5.13;;;;;;;;;;4928908;28;20402;-86
2022/10/08 06:49:01;;;;;;;10.45;5.88;;;;;;;;;;4918474;28;20497;-82
2022/10/08 06:51:29;;;;;;;9.57;5.35;;;;;;;;;;4921083;28;20473;-85
2022/10/08 06:53:59;;;;;;;9.27;5.18;;;;;;;;;;4890834;28;20166;-84
2022/10/08 06:56:25;;;;;;;8.05;5.55;;;;;;;;;;4919480;28;20035;-85
2022/10/08 06:58:51;;;;;;;8.20;5.60;;;;;;;;;;4932608;28;20481;-84
2022/10/08 07:01:17;;;;;;;10.02;5.68;;;;;;;;;;4936588;28;20648;-78
2022/10/08 07:03:48;;;;;;;8.30;5.45;;;;;;;;;;4945050;28;20047;-78
2022/10/08 07:06:13;;;;;;;9.20;5.60;;;;;;;;;;4945704;28;20525;-79
2022/10/08 07:08:39;;;;;;;9.40;5.30;;;;;;;;;;4913508;28;20035;-80
2022/10/08 07:11:09;;;;;;;9.88;6.45;;;;;;;;;;4928665;28;20574;-80
2022/10/08 07:13:36;;;;;;;9.23;5.38;;;;;;;;;;4929233;28;20031;-79
2022/10/08 07:16:12;;;;;;;9.98;5.90;;;;;;;;;;4925311;28;20774;-77
2022/10/08 07:18:38;;;;;;;8.02;5.50;;;;;;;;;;4929614;28;20043;-77
2022/10/08 07:21:04;;;;;;;8.70;5.63;;;;;;;;;;4922369;28;20086;-77
2022/10/08 07:23:30;;;;;;;9.70;5.88;;;;;;;;;;4938057;28;20374;-78
2022/10/08 07:26:00;;;;;;;10.38;5.70;;;;;;;;;;4922090;28;20036;-77
2022/10/08 07:28:28;;;;;;;8.80;5.78;;;;;;;;;;4924197;28;20039;-77
2022/10/08 07:30:54;;;;;;;8.63;5.22;;;;;;;;;;4921805;28;20547;-77
2022/10/08 07:33:19;;;;;;;8.40;5.28;;;;;;;;;;4932450;28;20038;-77
2022/10/08 07:35:45;;;;;;;8.90;4.57;;;;;;;;;;4918288;28;20498;-77
2022/10/08 07:38:10;;;;;;;7.35;3.58;;;;;;;;;;4925311;28;20039;-77
2022/10/08 07:40:36;;;;;;;6.32;3.80;;;;;;;;;;4931739;28;20031;-77
2022/10/08 07:43:02;;;;;;;6.97;3.13;;;;;;;;;;4940453;28;20565;-77
2022/10/08 07:45:27;;;;;;;4.50;2.70;;;;;;;;;;4929299;28;20047;-77
2022/10/08 07:47:53;;;;;;;7.45;3.38;;;;;;;;;;4939819;28;20039;-78
2022/10/08 07:50:18;;;;;;;5.10;2.85;;;;;;;;;;4940130;28;20079;-78
2022/10/08 07:52:43;;;;;;;5.63;2.92;;;;;;;;;;4926059;28;20050;-78
2022/10/08 07:55:09;;;;;;;5.13;2.53;;;;;;;;;;4928875;28;20046;-78
2022/10/08 07:57:34;;;;;;;5.38;2.40;;;;;;;;;;4941199;28;20111;-78
2022/10/08 07:59:59;;;;;;;6.43;2.80;;;;;;;;;;4940688;28;20421;-78
2022/10/08 08:02:25;;;;;;;4.68;2.67;;;;;;;;;;4938172;28;20046;-76
2022/10/08 08:04:50;;;;;;;6.25;2.30;;;;;;;;;;4949480;28;20047;-78
2022/10/08 08:07:15;;;;;;;6.00;2.47;;;;;;;;;;4941439;28;20403;-78
2022/10/08 08:09:41;;;;;;;5.45;2.33;;;;;;;;;;4938327;28;20478;-78
2022/10/08 08:12:06;;;;;;;4.70;2.28;;;;;;;;;;4924793;28;20113;-78
2022/10/08 08:14:32;;;;;;;5.60;1.83;;;;;;;;;;4923835;28;20039;-79
2022/10/08 08:16:57;;;;;;;4.93;1.70;;;;;;;;;;4915320;28;20047;-82
2022/10/08 08:19:23;;;;;;;4.30;1.75;;;;;;;;;;4925770;28;20118;-82
2022/10/08 08:21:48;;;;;;;5.00;1.83;;;;;;;;;;4933213;28;20106;-82
2022/10/08 08:24:15;;;;;;;4.90;1.58;;;;;;;;;;4932372;28;20062;-82
2022/10/08 08:26:41;;;;;;;3.92;1.42;;;;;;;;;;4922256;28;20487;-82
2022/10/08 08:29:15;;;;;;;5.53;1.75;;;;;;;;;;4924133;28;20041;-82
2022/10/08 08:31:42;;;;;;;4.00;1.40;;;;;;;;;;4938840;28;20387;-82
2022/10/08 08:34:11;;;;;;;6.18;1.20;;;;;;;;;;4925210;28;20497;-81
2022/10/08 08:36:42;;;;;;;3.67;1.35;;;;;;;;;;4931020;28;20038;-83
2022/10/08 08:39:12;;;;;;;5.13;1.23;;;;;;;;;;4939028;28;20570;-81
2022/10/08 08:42:16;;;;;;;4.40;1.27;;;;;;;;;;4948748;28;20042;-83
2022/10/08 08:44:43;;;;;;;5.40;1.23;;;;;;;;;;4932818;28;20045;-82
2022/10/08 08:47:11;;;;;;;3.97;1.10;;;;;;;;;;4939826;28;20268;-82
2022/10/08 08:50:01;;;;;;;3.72;1.20;;;;;;;;;;4954431;28;20043;-86
2022/10/08 08:52:35;;;;;;;8.13;1.40;;;;;;;;;;4912816;28;20047;-86
2022/10/08 08:55:31;;;;;;;4.28;1.38;;;;;;;;;;4918073;28;20497;-86
2022/10/08 08:58:34;;;;;;;3.43;1.10;;;;;;;;;;4914929;28;20038;-85
2022/10/08 09:01:09;;;;;;;6.55;1.50;;;;;;;;;;4888534;28;20126;-87
2022/10/08 09:03:42;;;;;;;5.40;1.50;;;;;;;;;;4956257;28;20051;-85
2022/10/08 09:06:12;;;;;;;4.22;1.15;;;;;;;;;;4912281;28;20039;-83
2022/10/08 09:09:11;;;;;;;6.50;1.60;;;;;;;;;;4930929;28;20100;-86
2022/10/08 09:11:38;;;;;;;5.68;1.30;;;;;;;;;;4921350;28;20058;-84
2022/10/08 09:14:10;;;;;;;2.90;1.03;;;;;;;;;;4916743;28;20046;-85
2022/10/08 09:16:37;;;;;;;3.50;1.20;;;;;;;;;;4953794;28;20275;-84
2022/10/08 09:19:03;;;;;;;4.57;1.40;;;;;;;;;;4938200;28;20066;-85
2022/10/08 09:21:30;;;;;;;3.80;1.25;;;;;;;;;;4938095;28;20066;-84
2022/10/08 09:23:56;;;;;;;3.58;1.13;;;;;;;;;;4925679;28;20126;-84
2022/10/08 09:26:23;;;;;;;4.75;1.40;;;;;;;;;;4931585;28;20129;-84
2022/10/08 09:28:51;;;;;;;7.60;1.80;;;;;;;;;;4938086;28;20134;-85
2022/10/08 09:31:20;;;;;;;5.38;1.70;;;;;;;;;;4945668;28;20043;-85
2022/10/08 09:33:57;;;;;;;5.07;1.58;;;;;;;;;;4922436;28;20065;-85
2022/10/08 09:36:34;;;;;;;4.43;1.48;;;;;;;;;;4932249;28;20045;-85
2022/10/08 09:39:00;;;;;;;;;;;;;;;;;;4940148;28;20506;-86
2022/10/08 09:41:27;;;;;;;4.72;1.40;;;;;;;;;;4928967;28;19924;-84
2022/10/08 09:44:11;;;;;;;3.63;1.40;;;;;;;;;;4931416;28;20142;-85
2022/10/08 09:46:36;;;;;;;5.18;1.67;;;;;;;;;;4954100;28;20042;-85
2022/10/08 09:49:20;;;;;;;4.47;1.38;;;;;;;;;;4937073;28;20498;-85
2022/10/08 09:51:46;;;;;;;4.72;1.35;;;;;;;;;;4929503;28;20051;-85
2022/10/08 09:54:12;;;;;;;5.30;2.10;;;;;;;;;;4921868;28;20065;-87
2022/10/08 09:56:37;;;;;;;3.88;1.38;;;;;;;;;;4937425;28;20045;-86
2022/10/08 09:59:04;;;;;;;3.72;1.48;;;;;;;;;;4931057;28;20047;-86
2022/10/08 10:01:30;;;;;;;4.60;1.90;;;;;;;;;;4924534;28;20462;-85
2022/10/08 10:04:00;;;;;;;4.25;1.50;;;;;;;;;;4925177;28;20169;-87
2022/10/08 10:06:32;;;;;;;4.13;1.83;;;;;;;;;;4943486;28;20098;-87
2022/10/08 10:09:27;;;;;;;5.38;1.63;;;;;;;;;;4911585;28;20144;-86
2022/10/08 10:12:05;;;;;;;4.35;1.63;;;;;;;;;;4930139;28;20073;-87
2022/10/08 10:14:50;;;;;;;5.28;1.73;;;;;;;;;;4935974;28;20659;-87
2022/10/08 10:17:41;;;;;;;5.13;1.77;;;;;;;;;;4923006;28;20086;-87
2022/10/08 10:20:39;;;;;;;5.72;1.77;;;;;;;;;;4905265;28;20051;-87
2022/10/08 10:23:32;;;;;;;6.15;1.65;;;;;;;;;;4925854;28;20121;-86
2022/10/08 10:26:07;;;;;;;3.70;1.70;;;;;;;;;;4920019;28;20048;-87
2022/10/08 10:28:40;;;;;;;4.40;1.48;;;;;;;;;;4936697;28;20070;-86
2022/10/08 10:31:33;;;;;;;4.93;1.85;;;;;;;;;;4913399;28;20059;-84
2022/10/08 10:34:19;;;;;;;3.53;1.60;;;;;;;;;;4906836;28;20042;-87
2022/10/08 10:36:49;;;;;;;5.97;2.05;;;;;;;;;;4951173;28;20034;-87
2022/10/08 10:39:52;;;;;;;3.50;1.83;;;;;;;;;;4920848;28;20924;-88
2022/10/08 10:42:29;;;;;;;5.03;1.63;;;;;;;;;;4937450;28;20442;-88
2022/10/08 10:44:58;;;;;;;6.20;1.90;;;;;;;;;;4919529;28;20054;-88
2022/10/08 10:47:28;;;;;;;4.70;1.90;;;;;;;;;;4951754;28;20031;-87
2022/10/08 10:49:53;;;;;;;4.93;1.88;;;;;;;;;;4934882;28;20042;-88
2022/10/08 10:52:38;;;;;;;4.15;1.70;;;;;;;;;;4935342;28;20387;-88
2022/10/08 10:55:09;;;;;;;5.38;2.00;;;;;;;;;;4925337;28;20152;-88
2022/10/08 10:57:46;;;;;;;4.85;1.98;;;;;;;;;;4944572;28;20059;-87
2022/10/08 11:00:19;;;;;;;4.25;1.65;;;;;;;;;;4938296;28;20042;-88
2022/10/08 11:03:11;;;;;;;5.22;2.35;;;;;;;;;;4922452;28;20042;-87
2022/10/08 11:05:38;;;;;;;4.40;2.00;;;;;;;;;;4927166;28;20121;-87
2022/10/08 11:08:10;;;;;;;;;;;;;;;;;;4924271;28;20405;-85
2022/10/08 11:10:44;;;;;;;6.70;2.08;;;;;;;;;;4917551;28;19926;-87
2022/10/08 11:13:16;;;;;;;5.93;1.98;;;;;;;;;;4936847;28;20847;-87
2022/10/08 11:16:05;;;;;;;5.28;2.15;;;;;;;;;;4917913;28;20406;-88
2022/10/08 11:18:43;;;;;;;4.30;2.05;;;;;;;;;;4901569;28;20479;-88
2022/10/08 11:21:15;;;;;;;5.03;1.95;;;;;;;;;;4945387;28;20059;-86
2022/10/08 11:23:46;;;;;;;4.38;1.90;;;;;;;;;;4931656;28;20035;-88
2022/10/08 11:26:24;;;;;;;5.13;2.10;;;;;;;;;;4957902;28;20047;-88
2022/10/08 11:29:08;;;;;;;4.38;1.98;;;;;;;;;;4926825;28;20321;-88
2022/10/08 11:31:43;;;;;;;5.55;2.15;;;;;;;;;;4917192;28;20141;-88
2022/10/08 11:34:26;;;;;;;5.88;2.20;;;;;;;;;;4924140;28;20125;-88
2022/10/08 11:37:06;;;;;;;5.00;2.30;;;;;;;;;;4923882;28;20047;-88
2022/10/08 11:39:53;;;;;;;5.50;2.45;;;;;;;;;;4932475;28;20046;-86
2022/10/08 11:42:38;;;;;;;7.07;2.95;;;;;;;;;;4948856;28;20047;-87
2022/10/08 11:45:22;;;;;;;7.57;3.38;;;;;;;;;;4930011;28;20494;-86
2022/10/08 11:47:53;;;;;;;9.32;3.38;;;;;;;;;;4957797;28;20045;-87
2022/10/08 11:50:23;;;;;;;6.28;3.30;;;;;;;;;;4924881;28;20035;-87
2022/10/08 11:52:49;;;;;;;6.00;2.90;;;;;;;;;;4921527;28;20137;-88
2022/10/08 11:55:22;;;;;;;7.72;3.60;;;;;;;;;;4921738;28;20252;-88
2022/10/08 11:58:00;;;;;;;5.50;3.22;;;;;;;;;;4926291;28;20038;-87
2022/10/08 12:00:26;;;;;;;;;;;;;;;;;;4922127;28;20047;-87
2022/10/08 12:02:52;;;;;;;5.68;3.08;;;;;;;;;;4954390;28;19987;-87
2022/10/08 12:05:18;;;;;;;7.30;3.70;;;;;;;;;;4924362;28;20047;-85
2022/10/08 12:07:50;;;;;;;8.00;3.70;;;;;;;;;;4948578;28;20126;-87
2022/10/08 12:10:18;;;;;;;6.35;3.50;;;;;;;;;;4923638;28;20039;-88
2022/10/08 12:12:49;;;;;;;7.35;3.20;;;;;;;;;;4949397;28;20047;-88
2022/10/08 12:15:24;;;;;;;7.15;2.72;;;;;;;;;;4940259;28;20498;-89
2022/10/08 12:17:57;;;;;;;5.72;2.80;;;;;;;;;;4948390;28;20047;-89
2022/10/08 12:20:31;;;;;;;5.28;2.70;;;;;;;;;;4932631;28;20497;-81
2022/10/08 12:23:08;;;;;;;6.78;2.80;;;;;;;;;;4957231;28;20050;-82
2022/10/08 12:25:40;;;;;;;6.20;2.78;;;;;;;;;;4932001;28;20035;-81
2022/10/08 12:28:17;;;;;;;4.97;2.53;;;;;;;;;;4941500;28;20494;-83
2022/10/08 12:30:54;;;;;;;5.57;2.80;;;;;;;;;;4947458;28;20047;-83
2022/10/08 12:33:20;;;;;;;6.47;2.60;;;;;;;;;;4945001;28;20094;-81
2022/10/08 12:35:57;;;;;;;6.05;2.78;;;;;;;;;;4931511;28;20362;-83
2022/10/08 12:38:25;;;;;;;6.68;2.25;;;;;;;;;;4948764;28;20047;-82
2022/10/08 12:40:59;;;;;;;6.65;2.97;;;;;;;;;;4949147;28;20038;-82
2022/10/08 12:43:33;;;;;;;7.53;2.13;;;;;;;;;;4941380;28;20035;-82
2022/10/08 12:46:25;;;;;;;6.22;2.15;;;;;;;;;;4941733;28;20051;-81
2022/10/08 12:49:22;;;;;;;5.30;1.90;;;;;;;;;;4945454;28;20450;-82
2022/10/08 12:51:54;;;;;;;4.47;2.05;;;;;;;;;;4928712;28;20169;-82
2022/10/08 12:54:25;;;;;;;4.57;1.95;;;;;;;;;;4937148;28;20131;-82
2022/10/08 12:56:51;;;;;;;4.57;1.75;;;;;;;;;;4938871;28;20510;-82
2022/10/08 12:59:21;;;;;;;3.95;1.65;;;;;;;;;;4931967;28;20073;-83
2022/10/08 13:01:47;;;;;;;3.78;1.60;;;;;;;;;;4937365;28;20387;-83
2022/10/08 13:04:21;;;;;;;6.50;2.03;;;;;;;;;;4941629;28;20102;-82
2022/10/08 13:06:49;;;;;;;6.80;2.10;;;;;;;;;;4947414;28;20507;-82
2022/10/08 13:09:34;;;;;;;5.55;1.85;;;;;;;;;;4941011;28;20036;-81
2022/10/08 13:12:04;;;;;;;3.88;1.67;;;;;;;;;;4946051;28;20057;-81
2022/10/08 13:14:33;;;;;;;4.18;1.75;;;;;;;;;;4925512;28;20073;-82
2022/10/08 13:16:59;;;;;;;5.57;2.10;;;;;;;;;;4929833;28;20047;-82
2022/10/08 13:19:27;;;;;;;5.28;1.52;;;;;;;;;;4927291;28;20043;-82
2022/10/08 13:21:55;;;;;;;5.28;1.90;;;;;;;;;;4931204;28;20118;-82
2022/10/08 13:24:20;;;;;;;4.30;1.42;;;;;;;;;;4922389;28;20491;-82
2022/10/08 13:26:51;;;;;;;3.90;1.67;;;;;;;;;;4946498;28;20042;-83
2022/10/08 13:29:29;;;;;;;4.40;1.80;;;;;;;;;;4931515;28;20043;-82
2022/10/08 13:31:57;;;;;;;6.38;1.50;;;;;;;;;;4925389;28;20059;-82
2022/10/08 13:34:24;;;;;;;3.53;1.50;;;;;;;;;;4955915;28;20074;-82
2022/10/08 13:36:53;;;;;;;4.32;1.60;;;;;;;;;;4928661;28;20035;-83
2022/10/08 13:39:28;;;;;;;3.25;1.20;;;;;;;;;;4928414;28;20061;-83
2022/10/08 13:41:56;;;;;;;3.15;1.38;;;;;;;;;;4939919;28;20324;-82
2022/10/08 13:44:28;;;;;;;4.93;1.50;;;;;;;;;;4931622;28;20104;-84
2022/10/08 13:46:53;;;;;;;3.28;1.20;;;;;;;;;;4930651;28;20133;-82
2022/10/08 13:49:25;;;;;;;3.83;1.20;;;;;;;;;;4926063;28;20075;-82
2022/10/08 13:51:51;;;;;;;4.45;1.50;;;;;;;;;;4942802;28;20108;-82
2022/10/08 13:54:20;;;;;;;4.50;1.42;;;;;;;;;;4937812;28;20035;-84
2022/10/08 13:56:46;;;;;;;3.33;1.30;;;;;;;;;;4932479;28;20041;-83
2022/10/08 13:59:11;;;;;;;3.47;1.40;;;;;;;;;;4930079;28;20393;-83
2022/10/08 14:01:37;;;;;;;3.03;1.23;;;;;;;;;;4939944;28;20034;-82
2022/10/08 14:04:03;;;;;;;6.15;1.38;;;;;;;;;;4944642;28;20066;-83
2022/10/08 14:06:28;;;;;;;2.60;1.02;;;;;;;;;;4929000;28;20989;-82
2022/10/08 14:08:54;;;;;;;2.67;1.30;;;;;;;;;;4946148;28;20141;-82
2022/10/08 14:11:19;;;;;;;3.72;0.98;;;;;;;;;;4924945;28;20398;-83
2022/10/08 14:13:44;;;;;;;3.88;1.20;;;;;;;;;;4934455;28;20042;-83
2022/10/08 14:16:15;;;;;;;2.78;1.00;;;;;;;;;;4934383;28;20390;-83
2022/10/08 14:18:40;;;;;;;3.63;1.30;;;;;;;;;;4920389;28;20419;-83
2022/10/08 14:21:08;;;;;;;3.97;1.23;;;;;;;;;;4940517;28;20114;-83
2022/10/08 14:23:33;;;;;;;3.78;1.30;;;;;;;;;;4923922;28;20031;-82
2022/10/08 14:25:59;;;;;;;2.72;1.02;;;;;;;;;;4944288;28;20113;-83
2022/10/08 14:28:24;;;;;;;2.47;1.05;;;;;;;;;;4935794;28;20041;-81
2022/10/08 14:30:49;;;;;;;3.40;1.30;;;;;;;;;;4925081;28;20042;-83
2022/10/08 14:33:15;;;;;;;4.50;1.30;;;;;;;;;;4939350;28;20094;-83
2022/10/08 14:35:41;;;;;;;4.88;1.13;;;;;;;;;;4928949;28;20038;-82
2022/10/08 14:38:07;;;;;;;3.20;1.20;;;;;;;;;;4935798;28;20409;-82
2022/10/08 14:40:32;;;;;;;5.10;1.30;;;;;;;;;;4922428;28;20032;-80
2022/10/08 14:42:59;;;;;;;3.85;1.20;;;;;;;;;;4929219;28;20089;-82
2022/10/08 14:45:26;;;;;;;2.47;0.97;;;;;;;;;;4937089;28;20422;-80
2022/10/08 14:47:51;;;;;;;2.50;0.95;;;;;;;;;;4929389;28;20058;-87
2022/10/08 14:50:19;;;;;;;3.80;0.80;;;;;;;;;;4931410;28;20402;-86
2022/10/08 14:52:45;;;;;;;3.05;1.10;;;;;;;;;;4922136;28;20054;-86
2022/10/08 14:55:13;;;;;;;1.80;0.73;;;;;;;;;;4931117;28;20482;-85
2022/10/08 14:57:38;;;;;;;;;;;;;;;;;;4923921;28;20494;-85
2022/10/08 15:00:05;;;;;;;2.20;0.80;;;;;;;;;;4932340;28;19925;-86
2022/10/08 15:02:30;;;;;;;2.88;0.88;;;;;;;;;;4924973;28;20334;-86
2022/10/08 15:04:55;;;;;;;3.05;1.15;;;;;;;;;;4926138;28;20130;-85
2022/10/08 15:07:21;;;;;;;2.42;1.00;;;;;;;;;;4924870;28;20036;-86
2022/10/08 15:09:49;;;;;;;2.67;1.10;;;;;;;;;;4930672;28;20051;-85